Time;durP1;ratioP1;P1;durP2;ratioP2;P2;SDS_P1;SDS_P2;PMS_P1;PMS_P2;Temp;Humidity;BMP_temperature;BMP_pressure;BME280_temperature;BME280_humidity;BME280_pressure;Samples;Min_cycle;Max_cycle;Signal;HPM_P1;HPM_P2
2023/06/03 04:24:16;;;;;;;7.53;3.13;;;;;;;13.39;60.48;99944.91;1087074;47;20026;-85
2023/06/03 04:25:19;;;;;;;9.43;3.67;;;;;;;13.34;60.56;99939.13;1087010;47;20030;-84
2023/06/03 04:26:28;;;;;;;8.70;3.50;;;;;;;13.26;60.87;99943.50;1087157;46;20035;-85
2023/06/03 04:27:30;;;;;;;9.73;3.50;;;;;;;13.35;60.46;99939.00;1086970;46;20027;-86
2023/06/03 04:28:35;;;;;;;10.02;3.28;;;;;;;13.38;60.29;99948.56;1088059;39;20902;-85
2023/06/03 04:29:37;;;;;;;7.53;3.58;;;;;;;13.44;60.25;99950.59;1086982;54;20023;-86
2023/06/03 04:30:41;;;;;;;7.72;3.58;;;;;;;13.47;60.40;99947.59;1087109;54;20099;-87
2023/06/03 04:31:43;;;;;;;9.10;3.65;;;;;;;13.57;59.92;99940.22;1086932;47;20133;-85
2023/06/03 04:32:48;;;;;;;7.18;2.90;;;;;;;13.69;59.69;99953.31;1087005;47;20053;-84
2023/06/03 04:33:50;;;;;;;9.10;3.63;;;;;;;13.56;59.91;99945.75;1087000;47;20029;-85
2023/06/03 04:34:55;;;;;;;8.50;3.50;;;;;;;13.62;59.87;99941.53;1087415;39;20893;-85
2023/06/03 04:35:57;;;;;;;11.38;3.15;;;;;;;13.67;59.59;99945.41;1086946;47;20050;-84
2023/06/03 04:37:02;;;;;;;8.48;2.88;;;;;;;13.65;59.91;99949.28;1086910;47;20030;-83
2023/06/03 04:38:04;;;;;;;12.05;3.70;;;;;;;13.63;60.02;99945.91;1087004;47;20154;-85
2023/06/03 04:39:11;;;;;;;12.63;3.55;;;;;;;13.48;60.30;99954.66;1086946;47;20022;-86
2023/06/03 04:40:14;;;;;;;11.77;4.05;;;;;;;13.53;60.35;99948.78;1087080;46;20443;-86
2023/06/03 04:41:18;;;;;;;9.35;3.67;;;;;;;13.61;59.83;99953.28;1087017;46;20086;-87
2023/06/03 04:42:21;;;;;;;7.78;3.78;;;;;;;13.66;59.82;99950.97;1086904;47;20034;-85
2023/06/03 04:43:27;;;;;;;10.50;3.72;;;;;;;13.56;60.04;99945.75;1087137;47;20422;-87
2023/06/03 04:44:31;;;;;;;8.77;4.07;;;;;;;13.55;60.07;99955.66;1087065;54;20051;-84
2023/06/03 04:45:35;;;;;;;11.93;3.63;;;;;;;13.51;60.48;99951.59;1087056;47;20038;-85
2023/06/03 04:46:37;;;;;;;7.78;3.60;;;;;;;13.53;60.17;99946.91;1086920;47;20041;-84
2023/06/03 04:47:41;;;;;;;8.63;3.53;;;;;;;13.48;60.20;99946.59;1086919;47;20030;-82
2023/06/03 04:48:45;;;;;;;9.05;4.15;;;;;;;13.51;60.31;99946.25;1087017;54;20064;-84
2023/06/03 04:49:49;;;;;;;11.98;3.65;;;;;;;13.53;60.00;99948.78;1087003;47;20050;-85
2023/06/03 04:50:50;;;;;;;9.35;3.35;;;;;;;13.51;60.10;99946.25;1087068;46;20023;-84
2023/06/03 04:51:54;;;;;;;9.93;3.63;;;;;;;13.59;59.87;99947.28;1086882;54;20058;-84
2023/06/03 04:52:56;;;;;;;9.82;3.30;;;;;;;13.54;60.19;99945.91;1087146;46;20026;-85
2023/06/03 04:54:00;;;;;;;10.88;4.00;;;;;;;13.55;60.01;99942.22;1086924;47;20118;-84
2023/06/03 04:55:05;;;;;;;9.30;3.20;;;;;;;13.54;60.08;99943.22;1086980;47;20082;-85
2023/06/03 04:56:09;;;;;;;11.38;3.50;;;;;;;13.66;59.72;99942.91;1087030;46;20061;-85
2023/06/03 04:57:12;;;;;;;7.00;3.45;;;;;;;13.72;59.49;99952.97;1086884;46;20027;-84
2023/06/03 04:58:18;;;;;;;9.27;3.22;;;;;;;13.74;59.34;99937.53;1086880;47;20030;-86
2023/06/03 04:59:20;;;;;;;7.43;3.20;;;;;;;13.74;59.73;99945.59;1087037;46;20042;-84
2023/06/03 05:00:29;;;;;;;6.55;3.13;;;;;;;13.93;59.38;99935.50;1087450;39;20795;-83
2023/06/03 05:01:38;;;;;;;11.60;3.25;;;;;;;13.87;59.15;99940.56;1087061;46;20052;-84
2023/06/03 05:02:44;;;;;;;8.45;3.40;;;;;;;13.80;59.43;99938.72;1087011;47;21187;-85
2023/06/03 05:03:46;;;;;;;8.23;3.70;;;;;;;13.84;59.41;99940.88;1087009;47;20038;-83
2023/06/03 05:04:50;;;;;;;8.70;3.25;;;;;;;13.95;59.06;99945.06;1086902;47;20026;-84
2023/06/03 05:05:52;;;;;;;10.88;3.70;;;;;;;13.98;59.00;99941.22;1086981;46;20057;-83
2023/06/03 05:07:00;;;;;;;9.57;3.55;;;;;;;14.09;58.90;99938.16;1086995;47;20775;-84
2023/06/03 05:08:02;;;;;;;8.43;3.13;;;;;;;14.20;58.68;99940.50;1087111;47;20023;-84
2023/06/03 05:09:05;;;;;;;7.03;2.90;;;;;;;14.26;58.33;99935.47;1086994;47;20052;-85
2023/06/03 05:10:10;;;;;;;6.30;2.92;;;;;;;14.32;58.05;99930.22;1087041;47;20026;-84
2023/06/03 05:11:15;;;;;;;8.45;3.42;;;;;;;14.13;58.12;99933.28;1087150;47;20026;-85
2023/06/03 05:12:18;;;;;;;11.98;3.92;;;;;;;14.12;58.36;99935.16;1087171;47;20051;-81
2023/06/03 05:13:22;;;;;;;9.05;3.42;;;;;;;14.18;58.17;99931.75;1087016;47;20062;-85
2023/06/03 05:14:25;;;;;;;7.40;3.30;;;;;;;14.20;58.14;99940.50;1086947;47;20122;-86
2023/06/03 05:15:29;;;;;;;8.00;3.50;;;;;;;14.14;58.16;99933.13;1087066;47;20022;-85
2023/06/03 05:16:32;;;;;;;11.15;3.83;;;;;;;14.12;58.49;99937.84;1087086;47;20031;-85
2023/06/03 05:17:36;;;;;;;8.18;3.45;;;;;;;14.23;58.05;99931.25;1087214;54;20034;-85
2023/06/03 05:18:38;;;;;;;7.93;3.70;;;;;;;14.14;58.07;99941.19;1087515;46;20022;-82
2023/06/03 05:19:42;;;;;;;8.77;4.43;;;;;;;13.99;58.47;99932.13;1087356;47;20053;-81
2023/06/03 05:20:43;;;;;;;9.48;3.63;;;;;;;13.94;58.30;99929.13;1087365;47;20047;-83
2023/06/03 05:21:47;;;;;;;8.32;4.20;;;;;;;14.08;58.18;99939.16;1087156;47;20030;-83
2023/06/03 05:22:48;;;;;;;6.68;3.30;;;;;;;14.22;57.77;99931.44;1087238;46;20026;-84
2023/06/03 05:23:53;;;;;;;5.68;2.95;;;;;;;14.34;57.30;99932.75;1087212;46;20046;-84
2023/06/03 05:24:54;;;;;;;8.73;3.45;;;;;;;14.27;57.46;99934.44;1087128;47;20033;-85
2023/06/03 05:26:00;;;;;;;8.48;3.58;;;;;;;14.20;57.20;99934.31;1087283;47;20065;-84
2023/06/03 05:27:03;;;;;;;11.00;5.47;;;;;;;14.19;57.47;99936.13;1087178;47;20030;-83
2023/06/03 05:28:08;;;;;;;10.07;3.55;;;;;;;14.11;57.63;99933.47;1087360;47;20026;-86
2023/06/03 05:29:11;;;;;;;8.82;3.70;;;;;;;14.16;57.74;99932.94;1087082;47;20022;-83
2023/06/03 05:30:16;;;;;;;7.15;3.47;;;;;;;14.04;57.93;99930.63;1087132;47;20030;-85
2023/06/03 05:31:17;;;;;;;11.63;4.38;;;;;;;14.12;57.94;99932.47;1087184;47;20026;-86
2023/06/03 05:32:20;;;;;;;8.63;3.58;;;;;;;14.23;57.61;99931.25;1087804;46;20061;-81
2023/06/03 05:33:25;;;;;;;7.93;2.97;;;;;;;14.32;57.30;99934.78;1087133;47;20023;-84
2023/06/03 05:34:30;;;;;;;6.63;3.30;;;;;;;14.40;57.23;99931.22;1087116;47;20023;-84
2023/06/03 05:35:31;;;;;;;9.45;4.20;;;;;;;14.39;57.06;99932.25;1087061;47;20943;-83
2023/06/03 05:36:35;;;;;;;7.40;3.45;;;;;;;14.43;56.76;99920.97;1090087;31;20757;-84
2023/06/03 05:37:37;;;;;;;7.57;3.22;;;;;;;14.43;56.76;99923.66;1087236;47;20051;-82
2023/06/03 05:38:41;;;;;;;7.22;3.35;;;;;;;14.44;56.81;99927.16;1086933;47;20030;-81
2023/06/03 05:39:45;;;;;;;8.98;3.30;;;;;;;14.33;56.91;99933.75;1086843;47;20022;-84
2023/06/03 05:40:50;;;;;;;8.60;4.15;;;;;;;14.25;57.10;99931.09;1087064;39;20847;-84
2023/06/03 05:41:53;;;;;;;8.40;3.17;;;;;;;14.31;57.23;99928.53;1087068;46;20026;-82
2023/06/03 05:42:57;;;;;;;6.63;2.90;;;;;;;14.34;57.06;99927.38;1087222;46;20059;-83
2023/06/03 05:44:01;;;;;;;10.80;3.40;;;;;;;14.36;57.10;99928.03;1087185;47;20034;-84
2023/06/03 05:45:06;;;;;;;8.73;3.80;;;;;;;14.42;56.87;99935.41;1087143;46;20030;-83
2023/06/03 05:46:07;;;;;;;9.18;4.00;;;;;;;14.33;57.05;99925.69;1087151;54;20109;-81
2023/06/03 05:47:11;;;;;;;7.40;3.53;;;;;;;14.48;56.74;99923.13;1087211;46;20026;-83
2023/06/03 05:48:13;;;;;;;7.07;3.40;;;;;;;14.39;57.10;99929.53;1086953;47;20029;-83
2023/06/03 05:49:17;;;;;;;9.15;3.78;;;;;;;14.36;57.29;99930.72;1087060;47;20068;-87
2023/06/03 05:50:18;;;;;;;9.00;3.35;;;;;;;14.31;57.15;99931.22;1087036;47;20026;-84
2023/06/03 05:51:22;;;;;;;10.18;4.25;;;;;;;14.27;57.53;99934.44;1086903;47;20030;-85
2023/06/03 05:52:24;;;;;;;6.18;2.95;;;;;;;14.29;57.29;99930.59;1087166;47;20034;-85
2023/06/03 05:53:29;;;;;;;8.75;4.00;;;;;;;14.41;57.07;99927.50;1087231;46;20048;-84
2023/06/03 05:54:33;;;;;;;8.45;3.65;;;;;;;14.50;56.71;99930.00;1087118;47;20034;-83
2023/06/03 05:55:37;;;;;;;9.40;3.67;;;;;;;14.54;56.89;99929.66;1087109;47;20049;-84
2023/06/03 05:56:38;;;;;;;11.57;4.47;;;;;;;14.67;56.66;99927.28;1086918;46;20023;-83
2023/06/03 05:57:45;;;;;;;7.32;3.15;;;;;;;14.78;56.52;99931.47;1087034;47;20026;-84
2023/06/03 05:58:46;;;;;;;10.25;3.45;;;;;;;14.75;56.45;99921.03;1086982;47;20029;-84
2023/06/03 05:59:51;;;;;;;7.20;3.55;;;;;;;14.63;56.47;99929.47;1086884;47;20042;-84
2023/06/03 06:00:52;;;;;;;10.75;3.75;;;;;;;14.66;56.58;99920.19;1087121;46;20068;-82
2023/06/03 06:01:57;;;;;;;8.05;3.58;;;;;;;14.70;56.20;99924.25;1086859;46;20022;-85
2023/06/03 06:02:59;;;;;;;10.23;3.42;;;;;;;14.85;55.98;99928.88;1087064;46;20047;-85
2023/06/03 06:04:04;;;;;;;6.63;3.05;;;;;;;14.92;55.91;99928.00;1086946;46;20031;-86
2023/06/03 06:05:06;;;;;;;9.13;3.38;;;;;;;14.98;55.87;99927.28;1086810;47;20027;-84
2023/06/03 06:06:10;;;;;;;10.80;3.35;;;;;;;14.86;56.12;99927.88;1086902;47;20027;-85
2023/06/03 06:07:11;;;;;;;9.30;3.83;;;;;;;14.70;56.35;99928.78;1087078;54;20026;-85
2023/06/03 06:08:15;;;;;;;7.70;3.90;;;;;;;14.65;56.53;99916.69;1087453;47;21056;-86
2023/06/03 06:09:16;;;;;;;7.93;3.55;;;;;;;14.62;56.44;99925.09;1087280;47;20023;-85
2023/06/03 06:10:20;;;;;;;8.82;3.28;;;;;;;14.70;56.49;99924.25;1087453;54;20110;-83
2023/06/03 06:11:21;;;;;;;8.27;3.20;;;;;;;14.81;55.76;99923.88;1087190;47;20014;-83
2023/06/03 06:12:25;;;;;;;9.40;3.40;;;;;;;14.90;55.78;99923.81;1087606;47;20026;-85
2023/06/03 06:13:29;;;;;;;7.47;3.00;;;;;;;14.78;56.07;99924.22;1087231;47;20114;-83
2023/06/03 06:14:33;;;;;;;7.38;3.20;;;;;;;14.92;56.11;99928.00;1087339;47;20022;-86
2023/06/03 06:15:34;;;;;;;10.48;3.78;;;;;;;14.89;55.83;99922.97;1089788;39;20206;-88
2023/06/03 06:16:38;;;;;;;11.10;3.67;;;;;;;15.01;55.76;99926.13;1087484;46;20059;-84
2023/06/03 06:17:42;;;;;;;6.55;3.30;;;;;;;15.10;55.39;99927.75;1087285;46;20024;-83
2023/06/03 06:18:46;;;;;;;8.95;3.20;;;;;;;15.12;55.44;99928.41;1087619;46;20057;-85
2023/06/03 06:19:48;;;;;;;8.50;3.45;;;;;;;15.04;55.75;99928.44;1087345;47;20030;-88
2023/06/03 06:20:52;;;;;;;10.43;3.60;;;;;;;14.96;55.89;99929.34;1087325;47;20046;-85
2023/06/03 06:21:55;;;;;;;11.65;3.85;;;;;;;14.94;56.10;99934.06;1087040;47;20023;-84
2023/06/03 06:22:56;;;;;;;9.23;3.60;;;;;;;15.01;55.74;99922.59;1087157;47;21054;-84
2023/06/03 06:24:00;;;;;;;7.95;3.47;;;;;;;15.00;55.92;99932.53;1087185;47;20033;-86
2023/06/03 06:25:03;;;;;;;8.23;3.35;;;;;;;15.06;55.60;99926.41;1087082;47;20023;-83
2023/06/03 06:26:07;;;;;;;9.65;4.15;;;;;;;15.05;55.89;99926.59;1087241;47;20078;-84
2023/06/03 06:27:10;;;;;;;12.35;3.88;;;;;;;15.06;56.11;99923.72;1087277;47;20030;-82
2023/06/03 06:28:14;;;;;;;7.95;3.40;;;;;;;15.16;55.78;99922.66;1087102;47;20023;-84
2023/06/03 06:29:20;;;;;;;9.02;3.22;;;;;;;15.14;55.91;99925.53;1086893;47;20067;-85
2023/06/03 06:30:22;;;;;;;8.75;3.53;;;;;;;15.36;55.13;99917.66;1086917;47;20143;-86
2023/06/03 06:31:26;;;;;;;6.35;2.95;;;;;;;15.47;55.10;99919.09;1087028;54;20038;-87
2023/06/03 06:32:29;;;;;;;9.05;3.50;;;;;;;15.43;55.16;99916.75;1086685;47;20095;-85
2023/06/03 06:33:36;;;;;;;6.70;3.30;;;;;;;15.40;55.24;99919.78;1086937;47;20022;-85
2023/06/03 06:34:39;;;;;;;8.93;3.90;;;;;;;15.44;55.09;99926.50;1086996;54;20034;-87
2023/06/03 06:35:42;;;;;;;9.35;3.90;;;;;;;15.44;55.12;99920.31;1087035;47;20030;-86
2023/06/03 06:36:49;;;;;;;5.63;3.30;;;;;;;15.51;54.86;99923.09;1086918;47;20030;-86
2023/06/03 06:37:59;;;;;;;8.65;3.65;;;;;;;15.41;54.73;99920.66;1088855;39;20849;-84
2023/06/03 06:39:02;;;;;;;8.15;3.60;;;;;;;15.39;55.02;99911.91;1086675;47;20028;-85
2023/06/03 06:40:16;;;;;;;7.68;3.88;;;;;;;15.43;54.84;99913.25;1086594;47;20061;-85
2023/06/03 06:41:21;;;;;;;11.80;3.92;;;;;;;15.38;54.93;99919.16;1086905;47;20011;-86
2023/06/03 06:42:34;;;;;;;7.88;3.03;;;;;;;15.47;55.03;99919.09;1087257;47;20030;-82
2023/06/03 06:43:59;;;;;;;9.57;3.95;;;;;;;15.54;54.76;99922.75;1086849;47;20023;-87
2023/06/03 06:45:08;;;;;;;8.57;3.45;;;;;;;15.60;54.58;99920.16;1086863;47;20026;-81
2023/06/03 06:46:13;;;;;;;8.10;3.35;;;;;;;15.78;54.39;99919.00;1087078;46;21024;-83
2023/06/03 06:47:20;;;;;;;7.05;3.65;;;;;;;15.87;54.15;99914.44;1087235;47;20022;-85
2023/06/03 06:48:24;;;;;;;13.88;4.15;;;;;;;15.88;54.06;99916.94;1086882;46;20045;-80
2023/06/03 06:49:35;;;;;;;8.13;3.38;;;;;;;15.98;53.79;99910.44;1086794;47;20106;-84
2023/06/03 06:50:48;;;;;;;7.63;3.60;;;;;;;16.09;53.67;99918.09;1086919;47;20026;-82
2023/06/03 06:51:53;;;;;;;8.35;3.55;;;;;;;16.14;53.64;99920.22;1086666;47;20034;-84
2023/06/03 06:52:56;;;;;;;8.95;3.72;;;;;;;16.28;53.21;99922.09;1087013;47;20026;-83
2023/06/03 06:54:02;;;;;;;7.47;3.25;;;;;;;16.32;53.22;99922.53;1086747;47;20033;-83
2023/06/03 06:55:10;;;;;;;6.97;3.33;;;;;;;16.48;52.78;99922.34;1086690;47;20051;-83
2023/06/03 06:56:15;;;;;;;9.57;3.53;;;;;;;16.60;52.72;99913.78;1086792;47;20033;-82
2023/06/03 06:57:35;;;;;;;9.75;4.07;;;;;;;16.75;52.40;99911.06;1086859;47;20047;-83
2023/06/03 06:58:51;;;;;;;9.70;3.72;;;;;;;16.88;52.16;99910.41;1086978;47;20027;-83
2023/06/03 07:00:04;;;;;;;10.13;3.75;;;;;;;16.83;51.89;99914.53;1086955;47;20990;-81
2023/06/03 07:01:17;;;;;;;8.38;3.65;;;;;;;16.82;52.00;99912.00;1086871;47;20062;-82
2023/06/03 07:02:41;;;;;;;6.93;3.42;;;;;;;16.87;51.46;99912.28;1086986;47;20085;-81
2023/06/03 07:03:55;;;;;;;8.55;3.95;;;;;;;16.86;51.62;99913.31;1087017;54;20125;-84
2023/06/03 07:05:01;;;;;;;7.80;3.85;;;;;;;16.84;51.91;99913.50;1086603;47;20023;-83
2023/06/03 07:06:12;;;;;;;7.60;3.70;;;;;;;16.99;51.26;99923.44;1089697;39;21037;-85
2023/06/03 07:07:17;;;;;;;10.57;3.65;;;;;;;16.85;51.59;99911.63;1086987;47;20022;-83
2023/06/03 07:08:30;;;;;;;8.75;3.75;;;;;;;16.79;51.46;99907.81;1086755;47;20113;-84
2023/06/03 07:09:47;;;;;;;8.07;3.60;;;;;;;16.97;51.31;99909.28;1085678;47;20098;-82
2023/06/03 07:10:59;;;;;;;9.40;3.80;;;;;;;17.04;51.41;99909.38;1086703;47;20034;-85
2023/06/03 07:37:03;;;;;;;6.75;3.40;;;;;;;18.74;47.37;99897.81;1087476;54;20040;-87
2023/06/03 07:38:53;;;;;;;6.22;3.45;;;;;;;18.62;47.18;99886.69;1086859;54;20034;-83
2023/06/03 07:40:24;;;;;;;9.38;4.03;;;;;;;18.43;47.67;99891.81;1086929;47;20036;-83
2023/06/03 07:41:55;;;;;;;10.85;3.88;;;;;;;18.18;48.17;99892.31;1086950;47;20038;-86
2023/06/03 07:43:13;;;;;;;8.73;3.58;;;;;;;18.39;47.67;99891.38;1085504;47;20046;-81
2023/06/03 07:44:36;;;;;;;8.88;4.00;;;;;;;18.54;47.22;99890.44;1085879;54;20026;-82
2023/06/03 07:45:48;;;;;;;8.23;3.60;;;;;;;18.74;47.18;99887.81;1085614;47;20051;-81
2023/06/03 07:46:57;;;;;;;7.90;3.85;;;;;;;18.69;47.28;99896.53;1086417;39;20317;-83
2023/06/03 07:48:08;;;;;;;9.40;3.97;;;;;;;18.64;47.58;99895.47;1086107;54;20057;-85
2023/06/03 07:49:14;;;;;;;6.57;3.50;;;;;;;18.67;47.46;99898.59;1085938;54;20034;-83
2023/06/03 07:50:37;;;;;;;6.80;3.58;;;;;;;18.63;47.26;99897.34;1085951;54;20259;-84
2023/06/03 07:51:54;;;;;;;7.28;3.03;;;;;;;18.76;47.47;99903.84;1086104;54;20038;-79
2023/06/03 07:53:03;;;;;;;7.63;3.85;;;;;;;18.72;47.43;99892.56;1084770;47;20034;-79
2023/06/03 07:54:17;;;;;;;10.00;3.42;;;;;;;18.98;46.77;99899.19;1084432;39;20527;-82
2023/06/03 07:55:28;;;;;;;7.25;3.90;;;;;;;18.89;47.30;99894.97;1085466;54;20042;-78
2023/06/03 07:58:15;;;;;;;7.80;3.47;;;;;;;19.06;46.92;99896.28;1085944;54;20073;-84
2023/06/03 07:59:30;;;;;;;8.15;3.50;;;;;;;19.20;46.74;99896.31;1086630;54;20043;-86
2023/06/03 08:00:42;;;;;;;9.57;3.88;;;;;;;19.16;46.98;99895.88;1085432;47;20086;-83
2023/06/03 08:01:53;;;;;;;6.28;3.25;;;;;;;19.17;46.67;99892.97;1085952;54;20065;-82
2023/06/03 08:02:54;;;;;;;6.72;3.25;;;;;;;19.32;46.83;99890.06;1086409;47;20614;-83
2023/06/03 08:03:58;;;;;;;6.28;2.92;;;;;;;19.62;46.17;99894.28;1087002;47;20065;-85
2023/06/03 08:05:02;;;;;;;6.47;3.03;;;;;;;19.96;45.51;99884.28;1086794;47;20030;-86
2023/06/03 08:06:13;;;;;;;8.07;3.40;;;;;;;20.04;45.17;99894.91;1086956;47;20090;-85
2023/06/03 08:07:17;;;;;;;6.78;3.10;;;;;;;20.01;45.58;99895.34;1088447;39;20982;-87
2023/06/03 08:09:50;;;;;;;6.22;2.90;;;;;;;20.68;44.32;99892.44;1087030;47;20102;-85
2023/06/03 08:10:54;;;;;;;5.80;3.10;;;;;;;20.82;43.85;99887.81;1086648;47;20035;-83
2023/06/03 08:12:00;;;;;;;7.28;3.60;;;;;;;20.50;44.13;99900.47;1086682;47;20041;-82
2023/06/03 08:13:04;;;;;;;7.68;3.25;;;;;;;20.41;44.72;99891.69;1087139;46;20061;-85
2023/06/03 08:14:09;;;;;;;6.93;3.30;;;;;;;20.38;44.15;99892.97;1086437;54;20030;-82
2023/06/03 08:15:31;;;;;;;6.35;3.60;;;;;;;20.19;44.74;99885.72;1086911;54;20030;-84
2023/06/03 08:16:36;;;;;;;8.88;3.60;;;;;;;20.08;44.87;99892.59;1087008;47;20029;-84
2023/06/03 08:17:44;;;;;;;8.30;3.35;;;;;;;20.23;45.14;99895.06;1087128;54;20961;-83
2023/06/03 08:18:50;;;;;;;8.23;3.28;;;;;;;20.36;44.91;99888.78;1087318;54;20026;-82
2023/06/03 08:19:58;;;;;;;10.50;4.38;;;;;;;20.23;44.84;99895.94;1086971;47;20026;-85
2023/06/03 08:21:02;;;;;;;15.75;4.47;;;;;;;20.20;44.70;99890.91;1087229;46;20068;-86
2023/06/03 08:22:11;;;;;;;8.75;4.43;;;;;;;20.18;44.85;99893.00;1087027;46;20031;-85
2023/06/03 08:23:18;;;;;;;12.38;4.05;;;;;;;20.16;44.93;99895.13;1087357;47;20022;-86
2023/06/03 08:24:19;;;;;;;5.68;3.67;;;;;;;20.34;44.45;99893.59;1088527;39;20687;-86
2023/06/03 08:25:24;;;;;;;6.43;3.63;;;;;;;20.70;44.13;99890.34;1087115;54;20058;-86
2023/06/03 08:26:27;;;;;;;7.00;3.30;;;;;;;20.96;43.89;99887.75;1087003;47;20026;-86
2023/06/03 08:27:33;;;;;;;6.05;3.60;;;;;;;20.82;44.00;99892.41;1087158;54;20102;-85
2023/06/03 08:28:38;;;;;;;10.30;4.05;;;;;;;20.65;43.69;99886.59;1088162;39;20328;-83
2023/06/03 08:29:42;;;;;;;5.95;3.40;;;;;;;20.60;43.87;99889.13;1087019;47;20029;-83
2023/06/03 08:30:43;;;;;;;7.05;3.78;;;;;;;20.52;44.05;99887.47;1086957;47;20034;-83
2023/06/03 08:31:46;;;;;;;8.77;4.32;;;;;;;20.71;43.63;99889.28;1086989;54;20778;-86
2023/06/03 08:32:48;;;;;;;8.20;3.90;;;;;;;20.83;43.42;99883.22;1087187;47;20086;-84
2023/06/03 08:33:53;;;;;;;7.03;3.97;;;;;;;20.76;43.43;99888.66;1086822;47;20037;-82
2023/06/03 08:34:54;;;;;;;6.25;3.63;;;;;;;20.76;43.35;99888.66;1086304;54;20027;-82
2023/06/03 08:35:58;;;;;;;6.50;3.67;;;;;;;20.76;43.22;99890.56;1087230;54;20090;-84
2023/06/03 08:36:59;;;;;;;7.72;3.70;;;;;;;21.15;42.84;99885.97;1086988;39;20315;-84
2023/06/03 08:38:03;;;;;;;7.55;3.95;;;;;;;21.03;42.88;99892.09;1086508;47;20031;-81
2023/06/03 08:39:06;;;;;;;7.00;3.67;;;;;;;21.44;42.16;99884.50;1086424;54;20070;-80
2023/06/03 08:40:12;;;;;;;8.55;3.78;;;;;;;21.66;41.61;99881.47;1086496;47;20072;-80
2023/06/03 08:41:14;;;;;;;6.25;3.40;;;;;;;21.64;41.57;99883.56;1085924;54;20026;-79
2023/06/03 08:42:25;;;;;;;5.47;2.95;;;;;;;21.51;41.90;99884.47;1086010;54;20030;-84
2023/06/03 08:43:35;;;;;;;6.65;3.47;;;;;;;21.58;41.67;99882.56;1086354;54;20035;-82
2023/06/03 08:44:44;;;;;;;9.52;3.75;;;;;;;21.63;41.90;99888.16;1089021;31;20670;-81
2023/06/03 08:45:58;;;;;;;9.85;3.80;;;;;;;21.37;41.98;99888.31;1085812;47;20059;-83
2023/06/03 08:47:13;;;;;;;6.18;3.15;;;;;;;21.86;41.59;99885.91;1086283;54;20034;-79
2023/06/03 08:48:23;;;;;;;7.20;3.83;;;;;;;21.81;41.40;99883.84;1086641;54;20047;-81
2023/06/03 08:49:38;;;;;;;6.82;3.75;;;;;;;21.79;41.19;99892.22;1086138;46;20039;-80
2023/06/03 08:50:44;;;;;;;10.13;4.65;;;;;;;21.90;41.32;99885.22;1087175;54;20031;-85
2023/06/03 09:13:24;;;;;;;6.85;3.38;;;;;;;23.37;38.63;99879.06;1088414;54;20074;-83
2023/06/03 09:14:28;;;;;;;7.45;3.85;;;;;;;23.25;38.32;99878.19;1089175;54;20034;-86
2023/06/03 09:15:34;;;;;;;7.85;3.97;;;;;;;23.21;38.49;99873.22;1089153;54;20065;-85
2023/06/03 09:16:44;;;;;;;7.65;3.28;;;;;;;23.44;38.36;99868.06;1088644;46;20033;-82
2023/06/03 09:17:46;;;;;;;6.75;3.55;;;;;;;23.34;38.51;99872.19;1088802;54;20106;-85
2023/06/03 09:18:52;;;;;;;8.32;3.83;;;;;;;23.13;38.61;99873.53;1088821;54;20057;-85
2023/06/03 09:19:54;;;;;;;6.28;3.80;;;;;;;23.33;38.41;99869.72;1088749;54;20090;-82
2023/06/03 09:20:59;;;;;;;7.57;3.75;;;;;;;23.52;37.78;99868.53;1087647;47;20109;-83
2023/06/03 09:22:05;;;;;;;11.05;4.30;;;;;;;23.29;38.04;99874.78;1088507;46;20034;-85
2023/06/03 09:23:09;;;;;;;11.27;4.32;;;;;;;23.04;38.73;99869.47;1088528;46;20033;-84
2023/06/03 09:24:11;;;;;;;7.70;3.33;;;;;;;23.00;38.54;99869.09;1088537;46;20033;-86
2023/06/03 09:25:15;;;;;;;8.48;4.60;;;;;;;22.77;39.16;99883.44;1088527;54;20125;-85
2023/06/03 09:26:16;;;;;;;10.45;3.90;;;;;;;23.00;38.80;99873.72;1088633;46;20022;-85
2023/06/03 09:27:20;;;;;;;7.75;4.18;;;;;;;22.92;38.95;99872.13;1088839;54;20118;-85
2023/06/03 09:28:24;;;;;;;7.47;3.80;;;;;;;23.16;38.76;99873.06;1088444;46;20090;-85
2023/06/03 09:29:27;;;;;;;7.70;4.30;;;;;;;23.01;38.74;99875.38;1088720;46;20057;-84
2023/06/03 09:30:33;;;;;;;6.95;3.88;;;;;;;23.07;38.43;99871.72;1088596;46;20027;-85
2023/06/03 09:31:37;;;;;;;8.35;4.20;;;;;;;22.90;38.78;99877.81;1088432;46;20031;-84
2023/06/03 09:32:38;;;;;;;8.20;3.95;;;;;;;22.52;39.41;99867.22;1088761;46;20050;-84
2023/06/03 09:33:43;;;;;;;8.70;4.10;;;;;;;22.37;40.11;99867.56;1088471;54;20034;-80
2023/06/03 09:34:44;;;;;;;8.32;4.18;;;;;;;22.61;40.16;99865.00;1088082;46;20057;-85
2023/06/03 09:36:20;;;;;;;8.98;4.15;;;;;;;23.15;38.77;99865.94;1088609;54;20459;-85
2023/06/03 09:37:21;;;;;;;8.38;3.65;;;;;;;23.40;38.44;99867.72;1090200;31;20809;-86
2023/06/03 09:38:25;;;;;;;6.75;3.92;;;;;;;23.75;37.55;99863.38;1088630;46;20163;-85
2023/06/03 09:39:40;;;;;;;5.15;3.03;;;;;;;24.04;37.17;99861.59;1088368;54;20139;-87
2023/06/03 09:40:41;;;;;;;8.68;3.70;;;;;;;24.27;37.02;99865.38;1088500;46;20082;-86
2023/06/03 09:41:45;;;;;;;7.15;3.88;;;;;;;24.43;36.67;99864.63;1088478;46;20030;-85
2023/06/03 09:42:46;;;;;;;10.50;4.20;;;;;;;23.89;37.40;99855.78;1088344;46;20022;-86
2023/06/03 09:44:08;;;;;;;8.20;3.85;;;;;;;23.93;36.98;99862.41;1088387;54;20030;-86
2023/06/03 09:45:31;;;;;;;7.50;3.75;;;;;;;24.00;37.10;99857.69;1088988;47;20019;-84
2023/06/03 09:46:41;;;;;;;7.22;4.03;;;;;;;23.81;37.18;99860.50;1092463;31;20793;-87
2023/06/03 09:47:57;;;;;;;9.07;3.78;;;;;;;24.32;36.84;99857.28;1088799;46;20026;-88
2023/06/03 09:50:12;;;;;;;8.52;3.95;;;;;;;24.15;37.07;99857.19;1087896;46;20055;-81
2023/06/03 09:51:13;;;;;;;7.05;3.88;;;;;;;24.27;37.05;99855.28;1086802;54;20038;-81
2023/06/03 09:52:33;;;;;;;12.38;4.47;;;;;;;24.43;36.71;99853.72;1088150;54;20650;-85
2023/06/03 09:53:40;;;;;;;9.85;3.80;;;;;;;24.13;37.01;99856.63;1088200;46;20056;-82
2023/06/03 09:54:44;;;;;;;11.35;4.88;;;;;;;23.76;37.55;99854.94;1088992;54;20094;-83
2023/06/03 09:56:27;;;;;;;7.55;3.90;;;;;;;23.72;37.46;99856.47;1089022;46;20045;-86
2023/06/03 09:57:29;;;;;;;11.38;4.00;;;;;;;23.58;37.64;99864.03;1088606;46;20037;-85
2023/06/03 09:58:41;;;;;;;8.70;3.88;;;;;;;23.63;37.68;99858.72;1088651;46;20030;-87
2023/06/03 10:00:07;;;;;;;7.50;4.30;;;;;;;23.74;37.66;99854.34;1088405;47;20022;-81
2023/06/03 10:01:11;;;;;;;9.02;4.28;;;;;;;23.85;37.60;99847.22;1088729;54;20033;-83
2023/06/03 10:02:16;;;;;;;9.32;4.00;;;;;;;23.90;37.25;99851.97;1088967;46;20041;-83
2023/06/03 10:03:22;;;;;;;9.85;4.22;;;;;;;23.93;37.37;99844.16;1088691;46;20022;-83
2023/06/03 10:04:39;;;;;;;8.60;4.15;;;;;;;24.00;37.49;99849.50;1088578;54;20034;-85
2023/06/03 10:06:48;;;;;;;7.32;3.78;;;;;;;23.95;37.50;99846.66;1069193;54;20819;31
2023/06/03 10:09:21;;;;;;;10.43;4.22;;;;;;;23.72;37.91;99852.91;1087876;38;21391;-87
2023/06/03 10:10:29;;;;;;;8.05;4.20;;;;;;;24.09;37.28;99847.25;1080316;54;20094;31
2023/06/03 10:11:45;;;;;;;7.57;3.65;;;;;;;24.09;37.30;99853.50;1084140;46;20042;-85
2023/06/03 10:12:49;;;;;;;7.72;4.30;;;;;;;24.33;36.86;99848.03;1088222;46;20031;-86
2023/06/03 10:14:04;;;;;;;8.98;4.65;;;;;;;24.51;36.45;99838.84;1087586;54;20094;-86
2023/06/03 10:15:12;;;;;;;7.75;4.00;;;;;;;24.49;36.37;99834.69;1087395;46;20031;-86
2023/06/03 10:16:13;;;;;;;6.70;3.88;;;;;;;24.53;36.54;99838.59;1087349;46;20022;-85
2023/06/03 10:17:19;;;;;;;10.18;4.10;;;;;;;24.14;36.95;99840.00;1087434;54;20057;-86
2023/06/03 10:19:26;;;;;;;9.35;4.68;;;;;;;24.07;37.12;99839.28;1089504;31;20843;-84
2023/06/03 10:20:32;;;;;;;8.38;4.05;;;;;;;23.98;37.16;99838.81;1087835;54;20037;-85
2023/06/03 10:21:39;;;;;;;7.97;4.45;;;;;;;24.25;36.97;99829.28;1090175;39;20341;-86
2023/06/03 10:22:42;;;;;;;10.32;4.20;;;;;;;24.45;36.56;99839.81;1087583;54;20049;-86
2023/06/03 10:23:46;;;;;;;10.13;4.28;;;;;;;24.29;36.87;99835.91;1087705;47;20038;-87
2023/06/03 10:24:52;;;;;;;8.40;3.83;;;;;;;24.26;36.91;99836.41;1087405;46;20674;-86
2023/06/03 10:25:53;;;;;;;10.25;4.57;;;;;;;24.28;36.94;99839.72;1087560;46;20026;-85
2023/06/03 10:26:57;;;;;;;8.88;4.15;;;;;;;24.68;36.32;99833.47;1087105;46;20082;-85
2023/06/03 10:28:00;;;;;;;8.13;4.53;;;;;;;24.75;36.12;99834.13;1087384;54;20049;-85
2023/06/03 10:29:05;;;;;;;7.85;4.25;;;;;;;24.86;35.93;99837.06;1087454;47;21082;-85
2023/06/03 10:30:14;;;;;;;9.13;4.18;;;;;;;24.60;36.05;99833.81;1087665;47;20034;-88